createdAt,value
2022-10-20T00:00:51.829Z,934.09
2022-10-20T00:01:51.850Z,934.09
2022-10-20T00:02:51.910Z,934.12
2022-10-20T00:03:51.893Z,934.10
2022-10-20T00:04:51.890Z,934.15
2022-10-20T00:05:51.902Z,934.17
2022-10-20T00:06:51.916Z,934.17
2022-10-20T00:07:51.931Z,934.17
2022-10-20T00:08:51.998Z,934.18
2022-10-20T00:09:51.961Z,934.18
2022-10-20T00:11:51.989Z,934.18
2022-10-20T00:12:52.006Z,934.21
2022-10-20T00:13:52.018Z,934.25
2022-10-20T00:14:52.034Z,934.23
2022-10-20T00:15:52.047Z,934.23
2022-10-20T00:16:52.065Z,934.27
2022-10-20T00:17:52.076Z,934.28
2022-10-20T00:18:52.092Z,934.26
2022-10-20T00:19:52.125Z,934.30
2022-10-20T00:20:52.119Z,934.31
2022-10-20T00:21:52.134Z,934.30
2022-10-20T00:22:52.151Z,934.35
2022-10-20T00:23:52.162Z,934.36
2022-10-20T00:24:52.190Z,934.32
2022-10-20T00:25:52.206Z,934.36
2022-10-20T00:26:52.205Z,934.34
2022-10-20T00:27:52.221Z,934.32
2022-10-20T00:28:52.236Z,934.30
2022-10-20T00:29:52.254Z,934.29
2022-10-20T00:30:52.266Z,934.33
2022-10-20T00:31:52.279Z,934.29
2022-10-20T00:32:52.294Z,934.29
2022-10-20T00:33:52.308Z,934.33
2022-10-20T00:34:52.323Z,934.35
2022-10-20T00:35:52.356Z,934.37
2022-10-20T00:36:52.351Z,934.38
2022-10-20T00:37:52.366Z,934.42
2022-10-20T00:38:52.380Z,934.41
2022-10-20T00:39:52.394Z,934.44
2022-10-20T00:40:52.408Z,934.43
2022-10-20T00:41:52.423Z,934.43
2022-10-20T00:42:52.438Z,934.46
2022-10-20T00:43:52.451Z,934.47
2022-10-20T00:44:52.467Z,934.49
2022-10-20T00:45:52.480Z,934.47
2022-10-20T00:46:52.496Z,934.48
2022-10-20T00:47:52.513Z,934.49
2022-10-20T00:48:52.523Z,934.48
2022-10-20T00:49:52.540Z,934.47
2022-10-20T00:50:52.550Z,934.48
2022-10-20T00:51:52.597Z,934.48
2022-10-20T00:52:52.581Z,934.46
2022-10-20T00:53:52.595Z,934.43
2022-10-20T00:54:52.610Z,934.43
2022-10-20T00:55:52.624Z,934.38
2022-10-20T00:56:52.676Z,934.37
2022-10-20T00:57:52.653Z,934.36
2022-10-20T00:58:52.671Z,934.33
2022-10-20T00:59:52.681Z,934.30
2022-10-20T01:00:52.700Z,934.30
2022-10-20T01:01:52.805Z,934.29
2022-10-20T01:02:52.724Z,934.32
2022-10-20T01:03:52.738Z,934.29
2022-10-20T01:04:52.754Z,934.30
2022-10-20T01:05:52.770Z,934.35
2022-10-20T01:06:52.784Z,934.35
2022-10-20T01:07:52.819Z,934.34
2022-10-20T01:08:52.883Z,934.29
2022-10-20T01:09:53.233Z,934.30
2022-10-20T01:10:52.839Z,934.28
2022-10-20T01:11:52.857Z,934.30
2022-10-20T01:12:52.871Z,934.28
2022-10-20T01:13:52.883Z,934.32
2022-10-20T01:14:52.897Z,934.29
2022-10-20T01:15:52.915Z,934.30
2022-10-20T01:16:52.926Z,934.32
2022-10-20T01:17:52.941Z,934.30
2022-10-20T01:18:52.955Z,934.32
2022-10-20T01:19:52.970Z,934.36
2022-10-20T01:20:52.998Z,934.38
2022-10-20T01:21:53.000Z,934.40
2022-10-20T01:22:53.026Z,934.45
2022-10-20T01:23:53.050Z,934.42
2022-10-20T01:24:53.041Z,934.45
2022-10-20T01:25:53.055Z,934.43
2022-10-20T01:26:53.071Z,934.43
2022-10-20T01:27:53.086Z,934.46
2022-10-20T01:28:53.099Z,934.49
2022-10-20T01:29:53.114Z,934.47
2022-10-20T01:30:53.127Z,934.51
2022-10-20T01:31:53.141Z,934.47
2022-10-20T01:32:53.157Z,934.48
2022-10-20T01:33:53.170Z,934.50
2022-10-20T01:34:53.343Z,934.45
2022-10-20T01:35:53.200Z,934.46
2022-10-20T01:36:53.217Z,934.49
2022-10-20T01:37:53.473Z,934.46
2022-10-20T01:38:53.242Z,934.47
2022-10-20T01:39:53.289Z,934.44
2022-10-20T01:40:53.272Z,934.42
2022-10-20T01:41:53.286Z,934.42
2022-10-20T01:42:53.301Z,934.45
2022-10-20T01:43:53.314Z,934.39
2022-10-20T01:44:53.328Z,934.45
2022-10-20T01:45:53.342Z,934.43
2022-10-20T01:46:53.359Z,934.49
2022-10-20T01:47:53.371Z,934.49
2022-10-20T01:48:53.386Z,934.48
2022-10-20T01:49:53.400Z,934.40
2022-10-20T01:50:53.412Z,934.39
2022-10-20T01:51:53.434Z,934.38
2022-10-20T01:52:53.442Z,934.37
2022-10-20T01:53:53.456Z,934.32
2022-10-20T01:54:53.471Z,934.27
2022-10-20T01:55:53.505Z,934.27
2022-10-20T01:56:53.500Z,934.25
2022-10-20T01:57:53.514Z,934.27
2022-10-20T01:58:53.527Z,934.23
2022-10-20T01:59:53.542Z,934.24
2022-10-20T02:00:53.588Z,934.18
2022-10-20T02:01:53.643Z,934.21
2022-10-20T02:02:53.586Z,934.22
2022-10-20T02:03:53.606Z,934.21
2022-10-20T02:04:53.615Z,934.20
2022-10-20T02:05:53.627Z,934.21
2022-10-20T02:06:53.642Z,934.17
2022-10-20T02:07:53.657Z,934.18
2022-10-20T02:08:53.722Z,934.16
2022-10-20T02:10:53.698Z,934.12
2022-10-20T02:11:53.737Z,934.15
2022-10-20T02:12:53.729Z,934.07
2022-10-20T02:13:53.742Z,934.13
2022-10-20T02:14:53.755Z,934.14
2022-10-20T02:15:53.770Z,934.14
2022-10-20T02:16:53.785Z,934.13
2022-10-20T02:17:53.800Z,934.12
2022-10-20T02:18:53.857Z,934.10
2022-10-20T02:19:53.827Z,934.08
2022-10-20T02:20:53.854Z,934.06
2022-10-20T02:21:53.858Z,934.02
2022-10-20T02:22:53.893Z,934.03
2022-10-20T02:23:53.884Z,934.02
2022-10-20T02:24:53.898Z,934.05
2022-10-20T02:25:53.913Z,934.10
2022-10-20T02:26:53.930Z,934.06
2022-10-20T02:27:54.043Z,934.09
2022-10-20T02:28:53.955Z,934.13
2022-10-20T02:29:53.972Z,934.12
2022-10-20T02:30:53.986Z,934.10
2022-10-20T02:31:53.998Z,934.15
2022-10-20T02:32:54.014Z,934.13
2022-10-20T02:33:54.028Z,934.12
2022-10-20T02:34:54.042Z,934.14
2022-10-20T02:35:54.054Z,934.09
2022-10-20T02:36:54.069Z,934.04
2022-10-20T02:37:54.085Z,934.09
2022-10-20T02:38:54.102Z,934.07
2022-10-20T02:39:54.114Z,934.02
2022-10-20T02:40:54.129Z,934.01
2022-10-20T02:41:54.142Z,933.98
2022-10-20T02:42:54.155Z,933.94
2022-10-20T02:43:54.194Z,933.90
2022-10-20T02:44:54.183Z,933.92
2022-10-20T02:45:54.205Z,933.94
2022-10-20T02:46:54.215Z,933.92
2022-10-20T02:47:54.227Z,933.90
2022-10-20T02:48:54.242Z,933.93
2022-10-20T02:49:54.257Z,933.92
2022-10-20T02:50:54.270Z,933.92
2022-10-20T02:51:54.287Z,933.91
2022-10-20T02:52:54.327Z,933.84
2022-10-20T02:53:54.311Z,933.84
2022-10-20T02:54:54.327Z,933.82
2022-10-20T02:55:54.339Z,933.79
2022-10-20T02:56:54.356Z,933.74
2022-10-20T02:57:54.371Z,933.78
2022-10-20T02:58:54.384Z,933.79
2022-10-20T02:59:54.420Z,933.80
2022-10-20T03:00:54.411Z,933.83
2022-10-20T03:01:54.501Z,933.85
2022-10-20T03:02:54.441Z,933.88
2022-10-20T03:03:54.456Z,933.88
2022-10-20T03:04:54.470Z,933.86
2022-10-20T03:05:54.487Z,933.89
2022-10-20T03:06:54.496Z,933.86
2022-10-20T03:07:54.511Z,933.85
2022-10-20T03:08:54.587Z,933.84
2022-10-20T03:09:54.540Z,933.78
2022-10-20T03:10:54.555Z,933.75
2022-10-20T03:11:54.568Z,933.69
2022-10-20T03:12:54.582Z,933.66
2022-10-20T03:13:54.597Z,933.66
2022-10-20T03:14:54.613Z,933.66
2022-10-20T03:15:54.644Z,933.65
2022-10-20T03:16:54.638Z,933.66
2022-10-20T03:17:54.653Z,933.68
2022-10-20T03:18:56.767Z,933.70
2022-10-20T03:19:54.688Z,933.69
2022-10-20T03:20:54.697Z,933.70
2022-10-20T03:21:54.712Z,933.66
2022-10-20T03:22:54.724Z,933.65
2022-10-20T03:23:54.741Z,933.65
2022-10-20T03:24:54.752Z,933.62
2022-10-20T03:25:54.770Z,933.60
2022-10-20T03:26:54.779Z,933.57
2022-10-20T03:27:54.797Z,933.56
2022-10-20T03:28:54.811Z,933.54
2022-10-20T03:29:54.826Z,933.50
2022-10-20T03:30:54.836Z,933.49
2022-10-20T03:31:54.871Z,933.46
2022-10-20T03:32:54.865Z,933.38
2022-10-20T03:33:54.885Z,933.34
2022-10-20T03:34:54.895Z,933.30
2022-10-20T03:35:54.909Z,933.24
2022-10-20T03:36:54.923Z,933.25
2022-10-20T03:37:54.938Z,933.23
2022-10-20T03:38:54.953Z,933.25
2022-10-20T03:39:54.968Z,933.26
2022-10-20T03:40:55.035Z,933.26
2022-10-20T03:41:54.993Z,933.29
2022-10-20T03:42:55.007Z,933.28
2022-10-20T03:43:55.022Z,933.26
2022-10-20T03:44:55.037Z,933.25
2022-10-20T03:45:55.050Z,933.19
2022-10-20T03:46:55.065Z,933.21
2022-10-20T03:47:55.099Z,933.18
2022-10-20T03:48:55.094Z,933.16
2022-10-20T03:49:55.242Z,933.16
2022-10-20T03:50:55.121Z,933.14
2022-10-20T03:51:55.134Z,933.12
2022-10-20T03:52:55.151Z,933.13
2022-10-20T03:53:55.164Z,933.11
2022-10-20T03:54:55.177Z,933.14
2022-10-20T03:55:55.191Z,933.15
2022-10-20T03:56:56.553Z,933.15
2022-10-20T03:57:55.220Z,933.18
2022-10-20T03:58:55.264Z,933.21
2022-10-20T03:59:55.249Z,933.17
2022-10-20T04:00:55.264Z,933.13
2022-10-20T04:01:55.376Z,933.13
2022-10-20T04:02:55.291Z,933.05
2022-10-20T04:03:55.323Z,933.00
2022-10-20T04:04:55.319Z,933.01
2022-10-20T04:05:55.333Z,932.96
2022-10-20T04:06:55.349Z,932.98
2022-10-20T04:07:55.361Z,933.03
2022-10-20T04:08:55.429Z,933.00
2022-10-20T04:09:55.390Z,933.01
2022-10-20T04:10:55.404Z,933.00
2022-10-20T04:11:55.417Z,932.97
2022-10-20T04:12:55.432Z,932.99
2022-10-20T04:13:55.447Z,932.99
2022-10-20T04:14:55.459Z,932.97
2022-10-20T04:15:55.474Z,933.00
2022-10-20T04:16:55.489Z,932.94
2022-10-20T04:17:55.503Z,932.93
2022-10-20T04:18:55.518Z,932.92
2022-10-20T04:19:55.553Z,932.91
2022-10-20T04:20:55.548Z,932.84
2022-10-20T04:21:55.560Z,932.83
2022-10-20T04:22:55.574Z,932.80
2022-10-20T04:23:55.588Z,932.80
2022-10-20T04:24:55.604Z,932.76
2022-10-20T04:25:55.617Z,932.77
2022-10-20T04:26:55.631Z,932.73
2022-10-20T04:27:55.647Z,932.74
2022-10-20T04:28:55.659Z,932.76
2022-10-20T04:29:55.673Z,932.76
2022-10-20T04:30:55.686Z,932.75
2022-10-20T04:31:55.700Z,932.75
2022-10-20T04:32:55.714Z,932.72
2022-10-20T04:33:55.732Z,932.72
2022-10-20T04:34:55.743Z,932.68
2022-10-20T04:35:55.796Z,932.69
2022-10-20T04:36:55.771Z,932.69
2022-10-20T04:37:55.785Z,932.69
2022-10-20T04:38:55.801Z,932.71
2022-10-20T04:39:55.814Z,932.66
2022-10-20T04:40:58.061Z,932.64
2022-10-20T04:41:55.842Z,932.68
2022-10-20T04:42:55.856Z,932.68
2022-10-20T04:43:55.870Z,932.65
2022-10-20T04:44:55.885Z,932.68
2022-10-20T04:45:55.899Z,932.67
2022-10-20T04:46:55.912Z,932.67
2022-10-20T04:47:55.927Z,932.69
2022-10-20T04:48:55.963Z,932.69
2022-10-20T04:49:55.954Z,932.67
2022-10-20T04:50:55.968Z,932.65
2022-10-20T04:52:00.644Z,932.63
2022-10-20T04:52:55.999Z,932.65
2022-10-20T04:53:56.065Z,932.60
2022-10-20T04:54:56.022Z,932.61
2022-10-20T04:55:56.040Z,932.61
2022-10-20T04:56:56.052Z,932.63
2022-10-20T04:57:56.068Z,932.61
2022-10-20T04:58:56.083Z,932.62
2022-10-20T04:59:56.095Z,932.62
2022-10-20T05:00:56.110Z,932.63
2022-10-20T05:01:56.206Z,932.65
2022-10-20T05:02:56.135Z,932.63
2022-10-20T05:03:56.152Z,932.58
2022-10-20T05:04:56.164Z,932.59
2022-10-20T05:05:56.179Z,932.57
2022-10-20T05:06:56.192Z,932.56
2022-10-20T05:07:56.226Z,932.55
2022-10-20T05:08:56.290Z,932.57
2022-10-20T05:09:56.235Z,932.54
2022-10-20T05:10:56.250Z,932.55
2022-10-20T05:11:56.264Z,932.54
2022-10-20T05:12:56.277Z,932.50
2022-10-20T05:13:56.295Z,932.51
2022-10-20T05:14:56.306Z,932.48
2022-10-20T05:15:56.320Z,932.47
2022-10-20T05:16:56.333Z,932.46
2022-10-20T05:17:56.349Z,932.47
2022-10-20T05:18:56.361Z,932.44
2022-10-20T05:19:56.376Z,932.44
2022-10-20T05:21:08.388Z,932.44
2022-10-20T05:21:56.406Z,932.44
2022-10-20T05:22:56.420Z,932.48
2022-10-20T05:23:56.453Z,932.49
2022-10-20T05:24:58.403Z,932.50
2022-10-20T05:25:56.487Z,932.49
2022-10-20T05:26:56.474Z,932.49
2022-10-20T05:27:56.487Z,932.45
2022-10-20T05:28:56.503Z,932.47
2022-10-20T05:29:56.518Z,932.46
2022-10-20T05:30:59.130Z,932.47
2022-10-20T05:31:56.545Z,932.49
2022-10-20T05:32:56.561Z,932.48
2022-10-20T05:33:56.572Z,932.52
2022-10-20T05:34:56.588Z,932.53
2022-10-20T05:35:56.604Z,932.51
2022-10-20T05:36:56.616Z,932.52
2022-10-20T05:37:56.635Z,932.49
2022-10-20T05:38:56.645Z,932.45
2022-10-20T05:39:56.676Z,932.42
2022-10-20T05:40:56.673Z,932.40
2022-10-20T05:41:56.688Z,932.37
2022-10-20T05:42:56.700Z,932.31
2022-10-20T05:43:56.740Z,932.27
2022-10-20T05:44:56.728Z,932.29
2022-10-20T05:45:56.740Z,932.19
2022-10-20T05:46:56.761Z,932.14
2022-10-20T05:47:56.769Z,932.14
2022-10-20T05:48:56.782Z,932.13
2022-10-20T05:49:56.798Z,932.13
2022-10-20T05:50:56.812Z,932.10
2022-10-20T05:51:56.824Z,932.08
2022-10-20T05:52:56.840Z,932.05
2022-10-20T05:53:56.853Z,932.08
2022-10-20T05:54:56.866Z,932.04
2022-10-20T05:55:57.022Z,932.04
2022-10-20T05:56:56.897Z,932.08
2022-10-20T05:57:56.911Z,932.07
2022-10-20T05:58:56.937Z,932.08
2022-10-20T05:59:56.941Z,932.08
2022-10-20T06:00:56.952Z,932.07
2022-10-20T06:01:56.966Z,932.09
2022-10-20T06:02:56.980Z,932.11
2022-10-20T06:03:56.994Z,932.13
2022-10-20T06:04:57.008Z,932.12
2022-10-20T06:05:57.023Z,932.12
2022-10-20T06:06:57.034Z,932.11
2022-10-20T06:07:57.048Z,932.11
2022-10-20T06:08:57.114Z,932.04
2022-10-20T06:09:57.078Z,932.04
2022-10-20T06:10:57.090Z,932.06
2022-10-20T06:11:57.164Z,932.03
2022-10-20T06:12:57.120Z,932.04
2022-10-20T06:13:57.133Z,932.06
2022-10-20T06:14:57.148Z,932.03
2022-10-20T06:15:57.162Z,932.02
2022-10-20T06:16:57.177Z,932.05
2022-10-20T06:17:57.190Z,931.97
2022-10-20T06:18:57.205Z,931.97
2022-10-20T06:19:57.216Z,931.96
2022-10-20T06:20:57.232Z,931.97
2022-10-20T06:21:57.602Z,931.94
2022-10-20T06:22:57.260Z,931.92
2022-10-20T06:23:57.274Z,931.88
2022-10-20T06:24:57.288Z,931.85
2022-10-20T06:25:57.302Z,931.88
2022-10-20T06:26:57.315Z,931.88
2022-10-20T06:27:57.416Z,931.85
2022-10-20T06:29:01.334Z,931.86
2022-10-20T06:29:57.360Z,931.90
2022-10-20T06:30:57.372Z,931.87
2022-10-20T06:31:57.389Z,931.89
2022-10-20T06:32:57.401Z,931.91
2022-10-20T06:33:57.414Z,931.94
2022-10-20T06:34:57.428Z,931.92
2022-10-20T06:35:57.443Z,931.92
2022-10-20T06:36:57.458Z,931.95
2022-10-20T06:37:57.468Z,931.91
2022-10-20T06:38:57.481Z,931.84
2022-10-20T06:39:57.498Z,931.84
2022-10-20T06:40:57.511Z,931.85
2022-10-20T06:41:57.525Z,931.79
2022-10-20T06:42:57.539Z,931.79
2022-10-20T06:43:57.570Z,931.78
2022-10-20T06:44:57.566Z,931.79
2022-10-20T06:45:57.581Z,931.78
2022-10-20T06:46:57.594Z,931.76
2022-10-20T06:47:57.608Z,931.82
2022-10-20T06:48:58.815Z,931.83
2022-10-20T06:49:57.637Z,931.84
2022-10-20T06:50:57.650Z,931.86
2022-10-20T06:51:57.787Z,931.87
2022-10-20T06:52:57.679Z,931.89
2022-10-20T06:53:57.691Z,931.91
2022-10-20T06:54:57.706Z,931.90
2022-10-20T06:55:57.719Z,931.97
2022-10-20T06:56:57.734Z,931.97
2022-10-20T06:57:57.749Z,931.97
2022-10-20T06:58:57.765Z,931.97
2022-10-20T06:59:57.795Z,931.92
2022-10-20T07:00:57.789Z,931.96
2022-10-20T07:01:57.844Z,931.97
2022-10-20T07:02:57.819Z,931.96
2022-10-20T07:03:57.832Z,931.98
2022-10-20T07:04:57.845Z,931.98
2022-10-20T07:05:57.860Z,931.96
2022-10-20T07:06:57.875Z,931.95
2022-10-20T07:07:57.887Z,932.01
2022-10-20T07:08:57.940Z,932.05
2022-10-20T07:09:57.914Z,932.10
2022-10-20T07:10:57.927Z,932.10
2022-10-20T07:11:57.941Z,932.13
2022-10-20T07:12:57.956Z,932.10
2022-10-20T07:13:57.971Z,932.08
2022-10-20T07:14:57.983Z,932.04
2022-10-20T07:15:58.022Z,932.02
2022-10-20T07:16:58.012Z,932.01
2022-10-20T07:17:58.030Z,932.04
2022-10-20T07:18:58.041Z,932.05
2022-10-20T07:19:58.055Z,932.01
2022-10-20T07:20:58.072Z,932.00
2022-10-20T07:21:58.080Z,931.96
2022-10-20T07:22:58.096Z,931.98
2022-10-20T07:23:58.109Z,931.98
2022-10-20T07:24:58.123Z,931.94
2022-10-20T07:25:58.137Z,931.94
2022-10-20T07:26:58.152Z,931.93
2022-10-20T07:27:58.165Z,931.95
2022-10-20T07:28:58.179Z,931.94
2022-10-20T07:29:58.194Z,931.94
2022-10-20T07:30:58.206Z,931.95
2022-10-20T07:31:59.991Z,931.97
2022-10-20T07:32:58.235Z,932.05
2022-10-20T07:34:06.779Z,932.08
2022-10-20T07:34:58.261Z,932.06
2022-10-20T07:35:58.276Z,932.03
2022-10-20T07:36:58.288Z,932.06
2022-10-20T07:37:58.304Z,932.07
2022-10-20T07:38:58.318Z,932.04
2022-10-20T07:39:58.332Z,932.07
2022-10-20T07:41:00.689Z,932.04
2022-10-20T07:41:58.359Z,932.03
2022-10-20T07:42:58.373Z,932.06
2022-10-20T07:43:58.386Z,932.04
2022-10-20T07:44:58.401Z,932.07
2022-10-20T07:45:58.414Z,932.12
2022-10-20T07:46:58.434Z,932.13
2022-10-20T07:47:58.471Z,932.15
2022-10-20T07:49:11.452Z,932.13
2022-10-20T07:49:58.471Z,932.18
2022-10-20T07:50:58.484Z,932.17
2022-10-20T07:51:58.498Z,932.21
2022-10-20T07:52:58.511Z,932.20
2022-10-20T07:54:00.583Z,932.22
2022-10-20T07:55:06.441Z,932.23
2022-10-20T07:55:58.553Z,932.22
2022-10-20T07:56:58.566Z,932.28
2022-10-20T07:57:58.582Z,932.24
2022-10-20T07:58:58.595Z,932.21
2022-10-20T07:59:58.608Z,932.20
2022-10-20T08:00:58.623Z,932.23
2022-10-20T08:01:59.848Z,932.15
2022-10-20T08:02:58.648Z,932.18
2022-10-20T08:03:58.683Z,932.11
2022-10-20T08:04:58.678Z,932.13
2022-10-20T08:05:58.693Z,932.11
2022-10-20T08:06:58.705Z,932.09
2022-10-20T08:07:58.718Z,932.09
2022-10-20T08:08:58.779Z,932.06
2022-10-20T08:09:58.756Z,932.08
2022-10-20T08:10:58.761Z,932.05
2022-10-20T08:11:58.774Z,932.04
2022-10-20T08:12:58.790Z,932.09
2022-10-20T08:13:58.802Z,932.11
2022-10-20T08:14:59.250Z,932.19
2022-10-20T08:15:59.338Z,932.20
2022-10-20T08:16:58.858Z,932.19
2022-10-20T08:17:58.860Z,932.17
2022-10-20T08:18:59.383Z,932.18
2022-10-20T08:20:04.951Z,932.18
2022-10-20T08:20:58.922Z,932.18
2022-10-20T08:21:58.917Z,932.15
2022-10-20T08:22:58.926Z,932.18
2022-10-20T08:23:58.940Z,932.11
2022-10-20T08:24:58.955Z,932.13
2022-10-20T08:25:58.969Z,932.11
2022-10-20T08:26:58.989Z,932.11
2022-10-20T08:28:59.011Z,932.10
2022-10-20T08:30:06.218Z,932.14
2022-10-20T08:30:59.039Z,932.18
2022-10-20T08:31:59.053Z,932.22
2022-10-20T08:32:59.065Z,932.29
2022-10-20T08:33:59.080Z,932.32
2022-10-20T08:34:59.091Z,932.35
2022-10-20T08:35:59.108Z,932.39
2022-10-20T08:36:59.137Z,932.40
2022-10-20T08:37:59.137Z,932.43
2022-10-20T08:39:03.370Z,932.44
2022-10-20T08:39:59.163Z,932.44
2022-10-20T08:40:59.177Z,932.47
2022-10-20T08:42:14.715Z,932.49
2022-10-20T08:42:59.205Z,932.48
2022-10-20T08:43:59.219Z,932.44
2022-10-20T08:44:59.233Z,932.52
2022-10-20T08:45:59.244Z,932.53
2022-10-20T08:46:59.258Z,932.52
2022-10-20T08:47:59.271Z,932.51
2022-10-20T08:48:59.287Z,932.52
2022-10-20T08:49:59.302Z,932.53
2022-10-20T08:50:59.318Z,932.52
2022-10-20T08:51:59.328Z,932.56
2022-10-20T08:52:59.364Z,932.54
2022-10-20T08:53:59.356Z,932.58
2022-10-20T08:54:59.371Z,932.54
2022-10-20T08:55:59.383Z,932.54
2022-10-20T08:56:59.403Z,932.54
2022-10-20T08:57:59.412Z,932.57
2022-10-20T08:58:59.426Z,932.56
2022-10-20T08:59:59.437Z,932.55
2022-10-20T09:00:59.457Z,932.61
2022-10-20T09:01:59.610Z,932.65
2022-10-20T09:02:59.481Z,932.69
2022-10-20T09:03:59.495Z,932.64
2022-10-20T09:04:59.507Z,932.70
2022-10-20T09:05:59.521Z,932.73
2022-10-20T09:06:59.533Z,932.77
2022-10-20T09:07:59.549Z,932.78
2022-10-20T09:08:59.673Z,932.86
2022-10-20T09:09:59.578Z,932.85
2022-10-20T09:10:59.591Z,932.87
2022-10-20T09:11:59.605Z,932.94
2022-10-20T09:12:59.618Z,932.95
2022-10-20T09:13:59.633Z,932.93
2022-10-20T09:14:59.647Z,932.93
2022-10-20T09:15:59.659Z,932.91
2022-10-20T09:17:00.804Z,932.89
2022-10-20T09:17:59.688Z,932.90
2022-10-20T09:18:59.701Z,932.85
2022-10-20T09:19:59.713Z,932.83
2022-10-20T09:20:59.728Z,932.80
2022-10-20T09:21:59.743Z,932.78
2022-10-20T09:23:04.212Z,932.84
2022-10-20T09:23:59.771Z,932.79
2022-10-20T09:24:59.804Z,932.80
2022-10-20T09:25:59.798Z,932.84
2022-10-20T09:27:00.353Z,932.89
2022-10-20T09:27:59.825Z,932.87
2022-10-20T09:29:12.382Z,932.91
2022-10-20T09:29:59.891Z,932.91
2022-10-20T09:30:59.864Z,932.92
2022-10-20T09:32:11.394Z,932.94
2022-10-20T09:33:00.102Z,932.99
2022-10-20T09:33:59.906Z,933.01
2022-10-20T09:34:59.936Z,933.01
2022-10-20T09:35:59.934Z,933.02
2022-10-20T09:36:59.947Z,933.04
2022-10-20T09:37:59.964Z,933.05
2022-10-20T09:38:59.975Z,933.06
2022-10-20T09:39:59.989Z,933.04
2022-10-20T09:41:00.031Z,933.08
2022-10-20T09:42:00.124Z,933.10
2022-10-20T09:43:00.032Z,933.13
2022-10-20T09:44:00.045Z,933.21
2022-10-20T09:45:00.061Z,933.16
2022-10-20T09:46:00.092Z,933.19
2022-10-20T09:47:00.108Z,933.22
2022-10-20T09:48:00.101Z,933.21
2022-10-20T09:49:00.115Z,933.25
2022-10-20T09:50:01.156Z,933.22
2022-10-20T09:51:00.326Z,933.26
2022-10-20T09:52:00.158Z,933.30
2022-10-20T09:53:00.172Z,933.34
2022-10-20T09:54:00.185Z,933.38
2022-10-20T09:55:00.198Z,933.36
2022-10-20T09:56:00.212Z,933.43
2022-10-20T09:57:00.244Z,933.40
2022-10-20T09:58:00.344Z,933.40
2022-10-20T09:59:00.255Z,933.45
2022-10-20T10:00:01.444Z,933.44
2022-10-20T10:01:00.322Z,933.46
2022-10-20T10:02:00.295Z,933.50
2022-10-20T10:03:00.307Z,933.50
2022-10-20T10:04:00.320Z,933.52
2022-10-20T10:05:00.335Z,933.57
2022-10-20T10:06:00.357Z,933.58
2022-10-20T10:07:00.361Z,933.62
2022-10-20T10:08:00.377Z,933.60
2022-10-20T10:09:00.480Z,933.61
2022-10-20T10:10:02.674Z,933.62
2022-10-20T10:11:00.416Z,933.59
2022-10-20T10:12:00.437Z,933.56
2022-10-20T10:13:00.520Z,933.55
2022-10-20T10:14:00.459Z,933.51
2022-10-20T10:15:00.474Z,933.55
2022-10-20T10:16:00.488Z,933.54
2022-10-20T10:17:00.498Z,933.54
2022-10-20T10:18:00.514Z,933.57
2022-10-20T10:19:00.668Z,933.56
2022-10-20T10:20:00.541Z,933.56
2022-10-20T10:21:00.554Z,933.54
2022-10-20T10:22:00.571Z,933.54
2022-10-20T10:23:00.581Z,933.49
2022-10-20T10:24:00.596Z,933.48
2022-10-20T10:25:00.610Z,933.49
2022-10-20T10:26:02.232Z,933.51
2022-10-20T10:27:00.638Z,933.49
2022-10-20T10:28:00.655Z,933.50
2022-10-20T10:29:00.682Z,933.54
2022-10-20T10:30:00.685Z,933.52
2022-10-20T10:31:00.691Z,933.54
2022-10-20T10:32:00.710Z,933.54
2022-10-20T10:33:00.730Z,933.56
2022-10-20T10:34:00.734Z,933.58
2022-10-20T10:35:00.747Z,933.58
2022-10-20T10:36:00.760Z,933.56
2022-10-20T10:37:00.775Z,933.54
2022-10-20T10:38:00.789Z,933.56
2022-10-20T10:39:00.802Z,933.52
2022-10-20T10:40:00.815Z,933.52
2022-10-20T10:41:00.830Z,933.54
2022-10-20T10:42:00.846Z,933.53
2022-10-20T10:43:00.857Z,933.51
2022-10-20T10:44:00.873Z,933.47
2022-10-20T10:45:00.922Z,933.48
2022-10-20T10:46:00.906Z,933.46
2022-10-20T10:47:00.913Z,933.46
2022-10-20T10:48:00.926Z,933.37
2022-10-20T10:49:00.940Z,933.40
2022-10-20T10:50:00.955Z,933.40
2022-10-20T10:51:00.966Z,933.45
2022-10-20T10:52:00.982Z,933.45
2022-10-20T10:53:00.997Z,933.41
2022-10-20T10:54:01.023Z,933.45
2022-10-20T10:55:01.025Z,933.45
2022-10-20T10:56:01.108Z,933.49
2022-10-20T10:57:01.052Z,933.49
2022-10-20T10:58:01.153Z,933.56
2022-10-20T10:59:01.080Z,933.57
2022-10-20T11:00:01.100Z,933.59
2022-10-20T11:01:01.219Z,933.67
2022-10-20T11:02:01.122Z,933.69
2022-10-20T11:03:01.133Z,933.75
2022-10-20T11:04:01.148Z,933.77
2022-10-20T11:05:01.173Z,933.79
2022-10-20T11:06:01.175Z,933.86
2022-10-20T11:07:01.188Z,933.91
2022-10-20T11:08:01.204Z,933.86
2022-10-20T11:09:01.274Z,933.87
2022-10-20T11:10:01.242Z,933.84
2022-10-20T11:11:01.254Z,933.81
2022-10-20T11:12:01.268Z,933.83
2022-10-20T11:13:01.272Z,933.83
2022-10-20T11:14:01.283Z,933.94
2022-10-20T11:15:01.298Z,933.97
2022-10-20T11:16:01.311Z,933.95
2022-10-20T11:17:01.348Z,933.95
2022-10-20T11:18:01.340Z,933.98
2022-10-20T11:19:01.354Z,934.01
2022-10-20T11:20:01.368Z,934.01
2022-10-20T11:21:01.383Z,933.96
2022-10-20T11:22:01.398Z,933.97
2022-10-20T11:23:01.408Z,934.02
2022-10-20T11:24:01.430Z,934.00
2022-10-20T11:25:01.446Z,934.06
2022-10-20T11:26:01.453Z,934.12
2022-10-20T11:27:01.463Z,934.16
2022-10-20T11:28:01.481Z,934.13
2022-10-20T11:29:01.494Z,934.14
2022-10-20T11:30:01.543Z,934.11
2022-10-20T11:31:01.520Z,934.11
2022-10-20T11:32:01.537Z,934.12
2022-10-20T11:33:01.568Z,934.13
2022-10-20T11:34:01.561Z,934.13
2022-10-20T11:35:01.580Z,934.13
2022-10-20T11:36:01.588Z,934.13
2022-10-20T11:37:01.603Z,934.10
2022-10-20T11:38:01.622Z,934.18
2022-10-20T11:39:01.630Z,934.15
2022-10-20T11:40:05.925Z,934.16
2022-10-20T11:41:01.657Z,934.16
2022-10-20T11:42:01.672Z,934.19
2022-10-20T11:43:01.684Z,934.20
2022-10-20T11:44:01.699Z,934.22
2022-10-20T11:45:01.720Z,934.24
2022-10-20T11:46:01.732Z,934.28
2022-10-20T11:47:01.740Z,934.29
2022-10-20T11:48:01.755Z,934.32
2022-10-20T11:49:04.017Z,934.29
2022-10-20T11:50:01.783Z,934.29
2022-10-20T11:51:01.838Z,934.29
2022-10-20T11:52:01.809Z,934.27
2022-10-20T11:53:01.824Z,934.27
2022-10-20T11:54:01.839Z,934.26
2022-10-20T11:55:01.854Z,934.25
2022-10-20T11:56:01.863Z,934.26
2022-10-20T11:57:01.878Z,934.22
2022-10-20T11:58:01.894Z,934.22
2022-10-20T11:59:01.907Z,934.21
2022-10-20T12:00:01.921Z,934.26
2022-10-20T12:01:01.937Z,934.29
2022-10-20T12:02:01.999Z,934.33
2022-10-20T12:03:01.968Z,934.34
2022-10-20T12:04:01.975Z,934.34
2022-10-20T12:05:02.096Z,934.35
2022-10-20T12:06:05.087Z,934.36
2022-10-20T12:07:02.017Z,934.35
2022-10-20T12:08:24.725Z,934.31
2022-10-20T12:09:02.110Z,934.32
2022-10-20T12:10:02.063Z,934.32
2022-10-20T12:11:02.074Z,934.33
2022-10-20T12:12:02.091Z,934.31
2022-10-20T12:13:02.102Z,934.34
2022-10-20T12:14:02.116Z,934.39
2022-10-20T12:15:02.134Z,934.39
2022-10-20T12:16:02.142Z,934.37
2022-10-20T12:17:02.157Z,934.39
2022-10-20T12:18:02.171Z,934.37
2022-10-20T12:19:02.194Z,934.37
2022-10-20T12:20:02.199Z,934.32
2022-10-20T12:21:02.230Z,934.33
2022-10-20T12:22:02.227Z,934.25
2022-10-20T12:23:02.241Z,934.22
2022-10-20T12:24:02.253Z,934.24
2022-10-20T12:25:02.271Z,934.17
2022-10-20T12:26:02.285Z,934.21
2022-10-20T12:27:02.297Z,934.16
2022-10-20T12:28:02.321Z,934.10
2022-10-20T12:29:02.325Z,934.07
2022-10-20T12:30:02.343Z,934.05
2022-10-20T12:31:02.351Z,934.07
2022-10-20T12:32:02.366Z,934.06